createdAt,value
2018-09-08T00:00:01.983Z,941.4
2018-09-08T00:01:02.674Z,941.44
2018-09-08T00:02:03.087Z,941.44
2018-09-08T00:03:03.779Z,941.46
2018-09-08T00:04:04.197Z,941.45
2018-09-08T00:05:04.887Z,941.46
2018-09-08T00:06:05.576Z,941.48
2018-09-08T00:07:05.991Z,941.44
2018-09-08T00:08:06.982Z,941.44
2018-09-08T00:09:07.391Z,941.49
2018-09-08T00:10:08.088Z,941.48
2018-09-08T00:11:08.226Z,941.51
2018-09-08T00:12:08.917Z,941.47
2018-09-08T00:13:09.332Z,941.51
2018-09-08T00:14:09.742Z,941.49
2018-09-08T00:15:10.159Z,941.52
2018-09-08T00:16:10.571Z,941.52
2018-09-08T00:17:10.710Z,941.49
2018-09-08T00:18:10.970Z,941.47
2018-09-08T00:19:11.665Z,941.44
2018-09-08T00:20:12.078Z,941.43
2018-09-08T00:21:12.490Z,941.39
2018-09-08T00:22:12.905Z,941.37
2018-09-08T00:23:13.322Z,941.38
2018-09-08T00:24:13.456Z,941.37
2018-09-08T00:25:13.591Z,941.37
2018-09-08T00:26:14.282Z,941.4
2018-09-08T00:27:14.752Z,941.41
2018-09-08T00:28:15.015Z,941.41
2018-09-08T00:29:15.431Z,941.44
2018-09-08T00:30:16.122Z,941.4
2018-09-08T00:31:16.814Z,941.42
2018-09-08T00:32:17.232Z,941.43
2018-09-08T00:33:17.371Z,941.43
2018-09-08T00:34:17.506Z,941.43
2018-09-08T00:35:18.200Z,941.43
2018-09-08T00:36:18.617Z,941.44
2018-09-08T00:37:19.311Z,941.46
2018-09-08T00:38:19.613Z,941.46
2018-09-08T00:39:19.912Z,941.43
2018-09-08T00:40:20.329Z,941.43
2018-09-08T00:41:20.467Z,941.43
2018-09-08T00:42:20.604Z,941.44
2018-09-08T00:43:20.739Z,941.44
2018-09-08T00:44:21.171Z,941.41
2018-09-08T00:45:21.309Z,941.39
2018-09-08T00:46:21.731Z,941.43
2018-09-08T00:47:22.700Z,941.42
2018-09-08T00:48:23.526Z,941.41
2018-09-08T00:49:23.937Z,941.44
2018-09-08T00:50:24.073Z,941.43
2018-09-08T00:51:25.042Z,941.41
2018-09-08T00:52:25.501Z,941.42
2018-09-08T00:53:25.589Z,941.42
2018-09-08T00:54:26.003Z,941.39
2018-09-08T00:55:26.135Z,941.39
2018-09-08T00:56:26.272Z,941.37
2018-09-08T00:57:26.686Z,941.37
2018-09-08T00:58:26.955Z,941.39
2018-09-08T00:59:27.091Z,941.4
2018-09-08T01:00:27.785Z,941.41
2018-09-08T01:01:28.479Z,941.42
2018-09-08T01:02:28.891Z,941.41
2018-09-08T01:03:29.585Z,941.43
2018-09-08T01:04:29.997Z,941.47
2018-09-08T01:05:30.691Z,941.47
2018-09-08T01:06:31.382Z,941.5
2018-09-08T01:07:31.795Z,941.52
2018-09-08T01:08:32.105Z,941.53
2018-09-08T01:09:32.520Z,941.58
2018-09-08T01:10:32.659Z,941.54
2018-09-08T01:11:32.795Z,941.55
2018-09-08T01:12:32.933Z,941.56
2018-09-08T01:13:33.068Z,941.6
2018-09-08T01:14:33.485Z,941.56
2018-09-08T01:15:33.897Z,941.58
2018-09-08T01:16:34.032Z,941.59
2018-09-08T01:17:34.169Z,941.61
2018-09-08T01:18:34.746Z,941.62
2018-09-08T01:19:35.162Z,941.64
2018-09-08T01:20:35.587Z,941.67
2018-09-08T01:21:35.723Z,941.64
2018-09-08T01:22:35.859Z,941.64
2018-09-08T01:23:36.830Z,941.68
2018-09-08T01:24:37.243Z,941.65
2018-09-08T01:25:37.936Z,941.67
2018-09-08T01:26:38.627Z,941.68
2018-09-08T01:27:38.763Z,941.69
2018-09-08T01:28:39.750Z,941.68
2018-09-08T01:29:39.888Z,941.7
2018-09-08T01:30:40.579Z,941.67
2018-09-08T01:31:40.993Z,941.67
2018-09-08T01:32:41.417Z,941.68
2018-09-08T01:33:42.104Z,941.67
2018-09-08T01:34:42.794Z,941.71
2018-09-08T01:35:42.934Z,941.71
2018-09-08T01:36:43.349Z,941.73
2018-09-08T01:37:43.763Z,941.72
2018-09-08T01:38:44.749Z,941.75
2018-09-08T01:39:45.467Z,941.74
2018-09-08T01:40:45.610Z,941.75
2018-09-08T01:41:45.742Z,941.78
2018-09-08T01:42:46.150Z,941.8
2018-09-08T01:43:46.839Z,941.76
2018-09-08T01:44:46.975Z,941.84
2018-09-08T01:45:47.668Z,941.82
2018-09-08T01:46:48.358Z,941.81
2018-09-08T01:47:48.773Z,941.85
2018-09-08T01:48:49.036Z,941.82
2018-09-08T01:49:49.448Z,941.81
2018-09-08T01:50:49.864Z,941.84
2018-09-08T01:51:49.996Z,941.82
2018-09-08T01:52:50.972Z,941.81
2018-09-08T01:53:51.383Z,941.77
2018-09-08T01:54:51.798Z,941.8
2018-09-08T01:55:51.939Z,941.8
2018-09-08T01:56:52.347Z,941.82
2018-09-08T01:57:52.487Z,941.81
2018-09-08T01:58:53.467Z,941.82
2018-09-08T01:59:53.882Z,941.85
2018-09-08T02:00:54.575Z,941.8
2018-09-08T02:01:55.265Z,941.83
2018-09-08T02:02:55.404Z,941.83
2018-09-08T02:03:55.814Z,941.83
2018-09-08T02:04:56.232Z,941.81
2018-09-08T02:05:57.204Z,941.8
2018-09-08T02:06:58.168Z,941.8
2018-09-08T02:07:58.904Z,941.78
2018-09-08T02:08:59.161Z,941.8
2018-09-08T02:09:59.298Z,941.78
2018-09-08T02:11:00.266Z,941.8
2018-09-08T02:12:00.958Z,941.81
2018-09-08T02:13:01.091Z,941.81
2018-09-08T02:14:01.507Z,941.82
2018-09-08T02:15:02.201Z,941.83
2018-09-08T02:16:02.891Z,941.84
2018-09-08T02:17:03.866Z,941.84
2018-09-08T02:18:04.276Z,941.84
2018-09-08T02:19:04.818Z,941.87
2018-09-08T02:20:05.230Z,941.86
2018-09-08T02:21:05.923Z,941.87
2018-09-08T02:22:06.335Z,941.85
2018-09-08T02:23:06.748Z,941.86
2018-09-08T02:24:06.882Z,941.82
2018-09-08T02:25:07.019Z,941.82
2018-09-08T02:26:07.155Z,941.79
2018-09-08T02:27:07.571Z,941.79
2018-09-08T02:28:07.984Z,941.79
2018-09-08T02:29:08.530Z,941.81
2018-09-08T02:30:09.222Z,941.79
2018-09-08T02:31:09.471Z,941.78
2018-09-08T02:32:09.887Z,941.81
2018-09-08T02:33:10.300Z,941.78
2018-09-08T02:34:10.712Z,941.8
2018-09-08T02:35:11.126Z,941.75
2018-09-08T02:36:11.816Z,941.76
2018-09-08T02:37:12.230Z,941.78
2018-09-08T02:38:13.203Z,941.75
2018-09-08T02:39:14.189Z,941.78
2018-09-08T02:40:14.335Z,941.71
2018-09-08T02:41:15.028Z,941.76
2018-09-08T02:42:15.997Z,941.76
2018-09-08T02:43:16.133Z,941.72
2018-09-08T02:44:16.546Z,941.75
2018-09-08T02:45:16.681Z,941.81
2018-09-08T02:46:17.373Z,941.78
2018-09-08T02:47:17.510Z,941.75
2018-09-08T02:48:18.201Z,941.72
2018-09-08T02:49:18.466Z,941.73
2018-09-08T02:50:18.879Z,941.69
2018-09-08T02:51:19.029Z,941.71
2018-09-08T02:52:19.454Z,941.69
2018-09-08T02:53:20.410Z,941.67
2018-09-08T02:54:20.833Z,941.65
2018-09-08T02:55:21.248Z,941.66
2018-09-08T02:56:21.944Z,941.65
2018-09-08T02:57:22.358Z,941.68
2018-09-08T02:58:22.773Z,941.68
2018-09-08T02:59:23.758Z,941.73
2018-09-08T03:00:24.449Z,941.7
2018-09-08T03:01:25.148Z,941.76
2018-09-08T03:02:25.560Z,941.79
2018-09-08T03:03:26.257Z,941.77
2018-09-08T03:04:26.667Z,941.77
2018-09-08T03:05:27.358Z,941.77
2018-09-08T03:06:27.774Z,941.79
2018-09-08T03:07:28.185Z,941.78
2018-09-08T03:08:28.330Z,941.77
2018-09-08T03:09:28.595Z,941.81
2018-09-08T03:10:29.012Z,941.77
2018-09-08T03:11:29.429Z,941.79
2018-09-08T03:12:30.401Z,941.75
2018-09-08T03:13:30.535Z,941.77
2018-09-08T03:14:31.228Z,941.72
2018-09-08T03:15:31.369Z,941.74
2018-09-08T03:16:31.786Z,941.77
2018-09-08T03:17:31.935Z,941.75
2018-09-08T03:18:32.346Z,941.78
2018-09-08T03:19:32.656Z,941.75
2018-09-08T03:20:32.620Z,941.78
2018-09-08T03:21:33.589Z,941.77
2018-09-08T03:22:34.559Z,941.77
2018-09-08T03:23:34.695Z,941.75
2018-09-08T03:24:35.109Z,941.72
2018-09-08T03:25:35.523Z,941.73
2018-09-08T03:26:35.664Z,941.73
2018-09-08T03:27:36.351Z,941.67
2018-09-08T03:28:36.765Z,941.66
2018-09-08T03:29:37.750Z,941.7
2018-09-08T03:30:37.894Z,941.69
2018-09-08T03:31:38.589Z,941.7
2018-09-08T03:32:39.283Z,941.7
2018-09-08T03:33:39.699Z,941.7
2018-09-08T03:34:40.389Z,941.68
2018-09-08T03:35:41.081Z,941.65
2018-09-08T03:36:41.217Z,941.7
2018-09-08T03:37:41.630Z,941.69
2018-09-08T03:38:42.041Z,941.73
2018-09-08T03:39:43.026Z,941.72
2018-09-08T03:40:43.441Z,941.71
2018-09-08T03:41:43.858Z,941.72
2018-09-08T03:42:44.270Z,941.72
2018-09-08T03:43:44.408Z,941.73
2018-09-08T03:44:44.820Z,941.71
2018-09-08T03:45:45.073Z,941.72
2018-09-08T03:46:45.486Z,941.71
2018-09-08T03:47:45.899Z,941.72
2018-09-08T03:48:46.033Z,941.75
2018-09-08T03:49:46.297Z,941.74
2018-09-08T03:50:46.429Z,941.72
2018-09-08T03:51:47.120Z,941.76
2018-09-08T03:52:47.535Z,941.71
2018-09-08T03:53:48.224Z,941.72
2018-09-08T03:54:48.361Z,941.71
2018-09-08T03:55:48.772Z,941.69
2018-09-08T03:56:49.184Z,941.69
2018-09-08T03:57:49.596Z,941.67
2018-09-08T03:58:50.059Z,941.67
2018-09-08T03:59:50.358Z,941.67
2018-09-08T04:00:51.050Z,941.65
2018-09-08T04:01:52.018Z,941.64
2018-09-08T04:02:52.708Z,941.68
2018-09-08T04:03:53.396Z,941.66
2018-09-08T04:04:53.805Z,941.65
2018-09-08T04:05:53.938Z,941.64
2018-09-08T04:06:54.629Z,941.62
2018-09-08T04:07:55.074Z,941.72
2018-09-08T04:08:55.454Z,941.69
2018-09-08T04:09:55.709Z,941.71
2018-09-08T04:10:55.843Z,941.73
2018-09-08T04:11:56.530Z,941.74
2018-09-08T04:12:56.665Z,941.73
2018-09-08T04:13:57.074Z,941.71
2018-09-08T04:14:57.210Z,941.72
2018-09-08T04:15:57.623Z,941.73
2018-09-08T04:16:58.035Z,941.7
2018-09-08T04:17:58.779Z,941.69
2018-09-08T04:18:59.225Z,941.67
2018-09-08T04:20:00.210Z,941.67
2018-09-08T04:21:00.622Z,941.68
2018-09-08T04:22:01.318Z,941.66
2018-09-08T04:23:01.724Z,941.64
2018-09-08T04:24:01.887Z,941.65
2018-09-08T04:25:02.018Z,941.64
2018-09-08T04:26:02.983Z,941.64
2018-09-08T04:27:03.676Z,941.63
2018-09-08T04:28:03.809Z,941.62
2018-09-08T04:29:03.943Z,941.63
2018-09-08T04:30:04.587Z,941.64
2018-09-08T04:31:05.277Z,941.62
2018-09-08T04:32:05.689Z,941.64
2018-09-08T04:33:06.380Z,941.66
2018-09-08T04:34:06.514Z,941.62
2018-09-08T04:35:07.485Z,941.63
2018-09-08T04:36:07.617Z,941.66
2018-09-08T04:37:08.308Z,941.69
2018-09-08T04:38:08.720Z,941.7
2018-09-08T04:39:09.408Z,941.73
2018-09-08T04:40:09.671Z,941.74
2018-09-08T04:41:09.805Z,941.74
2018-09-08T04:42:10.497Z,941.77
2018-09-08T04:43:11.186Z,941.8
2018-09-08T04:44:11.320Z,941.83
2018-09-08T04:45:11.455Z,941.83
2018-09-08T04:46:12.421Z,941.81
2018-09-08T04:47:12.556Z,941.86
2018-09-08T04:48:12.966Z,941.85
2018-09-08T04:49:13.116Z,941.87
2018-09-08T04:50:13.499Z,941.89
2018-09-08T04:51:13.916Z,941.9
2018-09-08T04:52:14.883Z,941.94
2018-09-08T04:53:15.297Z,941.96
2018-09-08T04:54:15.990Z,941.99
2018-09-08T04:55:16.121Z,941.98
2018-09-08T04:56:16.539Z,941.99
2018-09-08T04:57:17.228Z,942.01
2018-09-08T04:58:17.365Z,941.95
2018-09-08T04:59:18.061Z,941.99
2018-09-08T05:00:19.048Z,941.93
2018-09-08T05:01:20.014Z,941.93
2018-09-08T05:02:20.185Z,941.89
2018-09-08T05:03:20.264Z,941.88
2018-09-08T05:04:20.398Z,941.86
2018-09-08T05:05:20.811Z,941.9
2018-09-08T05:06:21.504Z,941.89
2018-09-08T05:07:22.200Z,941.91
2018-09-08T05:08:22.888Z,941.9
2018-09-08T05:09:23.583Z,941.94
2018-09-08T05:10:24.287Z,941.91
2018-09-08T05:11:24.701Z,941.93
2018-09-08T05:12:24.839Z,941.94
2018-09-08T05:13:25.530Z,941.92
2018-09-08T05:14:25.667Z,941.95
2018-09-08T05:15:25.805Z,941.94
2018-09-08T05:16:25.938Z,941.95
2018-09-08T05:17:26.074Z,941.94
2018-09-08T05:18:26.768Z,941.95
2018-09-08T05:19:27.183Z,941.98
2018-09-08T05:20:28.171Z,941.94
2018-09-08T05:21:28.863Z,941.93
2018-09-08T05:22:29.555Z,941.93
2018-09-08T05:24:30.219Z,941.9
2018-09-08T05:25:30.636Z,941.87
2018-09-08T05:26:31.051Z,941.89
2018-09-08T05:27:31.187Z,941.9
2018-09-08T05:28:31.936Z,941.88
2018-09-08T05:29:32.725Z,941.87
2018-09-08T05:30:32.988Z,941.91
2018-09-08T05:31:33.684Z,941.95
2018-09-08T05:32:33.816Z,941.92
2018-09-08T05:33:34.506Z,941.96
2018-09-08T05:34:35.476Z,941.97
2018-09-08T05:35:35.612Z,941.89
2018-09-08T05:36:36.027Z,941.94
2018-09-08T05:37:36.995Z,941.96
2018-09-08T05:38:37.409Z,941.95
2018-09-08T05:39:38.102Z,941.95
2018-09-08T05:40:38.362Z,941.97
2018-09-08T05:41:38.498Z,941.98
2018-09-08T05:42:38.633Z,942.03
2018-09-08T05:43:39.327Z,942.02
2018-09-08T05:44:40.020Z,942.06
2018-09-08T05:45:40.156Z,942.07
2018-09-08T05:46:41.132Z,942.1
2018-09-08T05:47:41.543Z,942.1
2018-09-08T05:48:41.979Z,942.1
2018-09-08T05:49:42.373Z,942.11
2018-09-08T05:50:42.634Z,942.06
2018-09-08T05:51:43.048Z,942.08
2018-09-08T05:52:44.020Z,942.06
2018-09-08T05:53:44.713Z,942.08
2018-09-08T05:54:45.403Z,942.06
2018-09-08T05:55:45.816Z,942.07
2018-09-08T05:56:45.956Z,942.1
2018-09-08T05:57:46.369Z,942.13
2018-09-08T05:58:47.341Z,942.15
2018-09-08T05:59:47.753Z,942.15
2018-09-08T06:00:48.460Z,942.11
2018-09-08T06:01:49.428Z,942.13
2018-09-08T06:02:49.566Z,942.15
2018-09-08T06:03:50.258Z,942.14
2018-09-08T06:04:50.674Z,942.15
2018-09-08T06:05:51.088Z,942.18
2018-09-08T06:06:51.504Z,942.15
2018-09-08T06:07:51.639Z,942.19
2018-09-08T06:08:52.052Z,942.22
2018-09-08T06:09:52.746Z,942.16
2018-09-08T06:10:53.158Z,942.19
2018-09-08T06:11:53.576Z,942.2
2018-09-08T06:12:54.553Z,942.2
2018-09-08T06:13:55.520Z,942.2
2018-09-08T06:14:55.936Z,942.23
2018-09-08T06:15:56.352Z,942.23
2018-09-08T06:16:56.767Z,942.22
2018-09-08T06:17:57.485Z,942.27
2018-09-08T06:18:57.622Z,942.24
2018-09-08T06:19:58.594Z,942.25
2018-09-08T06:20:58.858Z,942.28
2018-09-08T06:21:59.273Z,942.24
2018-09-08T06:22:59.688Z,942.25
2018-09-08T06:24:00.104Z,942.25
2018-09-08T06:25:00.241Z,942.27
2018-09-08T06:26:01.215Z,942.25
2018-09-08T06:27:01.356Z,942.27
2018-09-08T06:28:02.049Z,942.32
2018-09-08T06:29:02.466Z,942.37
2018-09-08T06:30:03.162Z,942.34
2018-09-08T06:31:03.869Z,942.22
2018-09-08T06:32:04.006Z,942.3
2018-09-08T06:33:04.422Z,942.37
2018-09-08T06:34:04.843Z,942.39
2018-09-08T06:35:05.043Z,942.37
2018-09-08T06:36:05.785Z,942.33
2018-09-08T06:37:06.202Z,942.38
2018-09-08T06:38:06.343Z,942.37
2018-09-08T06:39:06.483Z,942.43
2018-09-08T06:40:06.756Z,942.42
2018-09-08T06:41:07.023Z,942.4
2018-09-08T06:42:07.720Z,942.4
2018-09-08T06:43:08.136Z,942.43
2018-09-08T06:44:08.841Z,942.46
2018-09-08T06:45:09.344Z,942.44
2018-09-08T06:46:10.154Z,942.45
2018-09-08T06:47:10.576Z,942.47
2018-09-08T06:48:11.548Z,942.51
2018-09-08T06:49:11.690Z,942.5
2018-09-08T06:50:12.108Z,942.49
2018-09-08T06:51:12.377Z,942.49
2018-09-08T06:52:12.861Z,942.5
2018-09-08T06:53:13.007Z,942.5
2018-09-08T06:54:13.703Z,942.51
2018-09-08T06:55:14.690Z,942.47
2018-09-08T06:56:15.122Z,942.48
2018-09-08T06:57:15.819Z,942.47
2018-09-08T06:58:16.516Z,942.48
2018-09-08T06:59:16.937Z,942.47
2018-09-08T07:00:17.631Z,942.49
2018-09-08T07:01:18.343Z,942.47
2018-09-08T07:02:18.760Z,942.49
2018-09-08T07:03:18.928Z,942.51
2018-09-08T07:04:19.425Z,942.52
2018-09-08T07:05:19.844Z,942.56
2018-09-08T07:06:19.985Z,942.55
2018-09-08T07:07:20.127Z,942.58
2018-09-08T07:08:20.546Z,942.57
2018-09-08T07:09:21.524Z,942.57
2018-09-08T07:10:21.938Z,942.59
2018-09-08T07:11:22.926Z,942.57
2018-09-08T07:12:23.067Z,942.61
2018-09-08T07:13:23.762Z,942.66
2018-09-08T07:14:24.458Z,942.6
2018-09-08T07:15:24.604Z,942.63
2018-09-08T07:16:24.740Z,942.59
2018-09-08T07:17:24.880Z,942.6
2018-09-08T07:18:25.298Z,942.59
2018-09-08T07:19:26.273Z,942.6
2018-09-08T07:20:26.686Z,942.58
2018-09-08T07:21:26.712Z,942.61
2018-09-08T07:22:27.132Z,942.62
2018-09-08T07:23:27.830Z,942.63
2018-09-08T07:24:27.976Z,942.62
2018-09-08T07:25:28.109Z,942.66
2018-09-08T07:26:28.531Z,942.68
2018-09-08T07:27:28.947Z,942.65
2018-09-08T07:28:29.087Z,942.65
2018-09-08T07:29:29.505Z,942.67
2018-09-08T07:30:29.645Z,942.68
2018-09-08T07:31:29.911Z,942.64
2018-09-08T07:32:30.607Z,942.66
2018-09-08T07:33:31.307Z,942.71
2018-09-08T07:34:31.727Z,942.72
2018-09-08T07:35:32.423Z,942.69
2018-09-08T07:36:33.123Z,942.74
2018-09-08T07:37:33.534Z,942.69
2018-09-08T07:38:33.681Z,942.74
2018-09-08T07:39:34.385Z,942.74
2018-09-08T07:40:34.791Z,942.76
2018-09-08T07:41:35.784Z,942.78
2018-09-08T07:42:35.927Z,942.79
2018-09-08T07:43:36.342Z,942.84
2018-09-08T07:44:37.042Z,942.87
2018-09-08T07:45:37.741Z,942.89
2018-09-08T07:46:38.438Z,942.94
2018-09-08T07:47:39.136Z,942.95
2018-09-08T07:48:39.277Z,942.96
2018-09-08T07:49:39.418Z,942.99
2018-09-08T07:50:39.841Z,942.95
2018-09-08T07:51:40.109Z,942.97
2018-09-08T07:52:40.806Z,943.01
2018-09-08T07:53:41.331Z,942.98
2018-09-08T07:54:41.472Z,943
2018-09-08T07:55:42.164Z,942.98
2018-09-08T07:56:42.878Z,942.98
2018-09-08T07:57:43.018Z,942.96
2018-09-08T07:58:43.160Z,942.95
2018-09-08T07:59:43.856Z,942.94
2018-09-08T08:00:43.998Z,942.93
2018-09-08T08:01:44.266Z,942.9
2018-09-08T08:02:44.412Z,942.89
2018-09-08T08:03:45.107Z,942.9
2018-09-08T08:04:45.803Z,942.89
2018-09-08T08:05:46.502Z,942.91
2018-09-08T08:06:47.522Z,942.89
2018-09-08T08:07:47.483Z,942.87
2018-09-08T08:08:47.901Z,942.89
2018-09-08T08:09:48.042Z,942.9
2018-09-08T08:10:48.460Z,942.91
2018-09-08T08:11:49.174Z,942.92
2018-09-08T08:12:50.149Z,942.95
2018-09-08T08:13:50.290Z,942.91
2018-09-08T08:14:50.988Z,942.93
2018-09-08T08:15:51.126Z,942.96
2018-09-08T08:16:51.549Z,942.97
2018-09-08T08:17:52.244Z,942.94
2018-09-08T08:18:52.660Z,942.94
2018-09-08T08:19:52.804Z,942.96
2018-09-08T08:20:53.119Z,942.89
2018-09-08T08:21:53.387Z,942.91
2018-09-08T08:22:53.533Z,942.95
2018-09-08T08:23:53.951Z,942.96
2018-09-08T08:24:54.091Z,943
2018-09-08T08:25:54.510Z,943
2018-09-08T08:26:55.207Z,943.01
2018-09-08T08:27:55.905Z,942.98
2018-09-08T08:28:56.327Z,943.02
2018-09-08T08:29:56.748Z,942.99
2018-09-08T08:30:57.166Z,942.99
2018-09-08T08:31:58.157Z,943.02
2018-09-08T08:32:58.576Z,943.05
2018-09-08T08:33:58.719Z,943.06
2018-09-08T08:34:59.139Z,943.06
2018-09-08T08:35:59.274Z,943.06
2018-09-08T08:36:59.975Z,943.07
2018-09-08T08:38:00.676Z,943.09
2018-09-08T08:39:00.816Z,943.09
2018-09-08T08:40:00.957Z,943.11
2018-09-08T08:41:01.097Z,943.12
2018-09-08T08:42:02.092Z,943.11
2018-09-08T08:43:02.233Z,943.13
2018-09-08T08:44:03.208Z,943.12
2018-09-08T08:45:03.905Z,943.13
2018-09-08T08:46:04.601Z,943.13
2018-09-08T08:47:04.742Z,943.13
2018-09-08T08:48:05.441Z,943.09
2018-09-08T08:49:05.862Z,943.09
2018-09-08T08:50:06.326Z,943.09
2018-09-08T08:51:07.024Z,943.07
2018-09-08T08:52:07.847Z,943.08
2018-09-08T08:53:08.544Z,943.11
2018-09-08T08:54:08.972Z,943.1
2018-09-08T08:55:09.393Z,943.07
2018-09-08T08:56:09.534Z,943.07
2018-09-08T08:57:09.989Z,943.12
2018-09-08T08:58:09.961Z,943.1
2018-09-08T08:59:10.936Z,943.09
2018-09-08T09:00:11.354Z,943.1
2018-09-08T09:01:12.051Z,943.1
2018-09-08T09:02:13.045Z,943.13
2018-09-08T09:03:13.299Z,943.08
2018-09-08T09:04:14.006Z,943.14
2018-09-08T09:05:14.710Z,943.1
2018-09-08T09:06:15.126Z,943.12
2018-09-08T09:07:16.081Z,943.13
2018-09-08T09:08:16.285Z,943.14
2018-09-08T09:09:16.924Z,943.06
2018-09-08T09:10:17.326Z,943.11
2018-09-08T09:11:17.468Z,943.06
2018-09-08T09:12:17.655Z,943.08
2018-09-08T09:13:18.084Z,943.1
2018-09-08T09:14:18.645Z,943.07
2018-09-08T09:15:19.770Z,943.07
2018-09-08T09:16:20.077Z,943.01
2018-09-08T09:17:20.502Z,943.03
2018-09-08T09:18:21.048Z,943.08
2018-09-08T09:19:21.407Z,943.12
2018-09-08T09:20:21.828Z,943.05
2018-09-08T09:21:22.252Z,943.11
2018-09-08T09:22:23.251Z,943.08
2018-09-08T09:23:24.046Z,943.11
2018-09-08T09:24:25.008Z,943.1
2018-09-08T09:25:25.513Z,943.06
2018-09-08T09:26:26.493Z,943.09
2018-09-08T09:27:26.922Z,943.13
2018-09-08T09:28:27.071Z,943.07
2018-09-08T09:29:27.514Z,943.09
2018-09-08T09:30:28.208Z,943.09
2018-09-08T09:31:29.185Z,943.04
2018-09-08T09:32:30.177Z,943.03
2018-09-08T09:33:30.878Z,943.03
2018-09-08T09:34:31.027Z,943.03
2018-09-08T09:35:32.007Z,942.98
2018-09-08T09:36:32.709Z,942.99
2018-09-08T09:37:33.413Z,942.98
2018-09-08T09:38:34.389Z,942.96
2018-09-08T09:39:34.534Z,942.94
2018-09-08T09:40:34.959Z,942.93
2018-09-08T09:41:35.214Z,942.95
2018-09-08T09:42:35.486Z,942.96
2018-09-08T09:43:35.911Z,942.98
2018-09-08T09:44:36.054Z,942.97
2018-09-08T09:45:36.479Z,943.04
2018-09-08T09:46:36.904Z,943.07
2018-09-08T09:47:37.616Z,942.98
2018-09-08T09:48:38.319Z,943.01
2018-09-08T09:49:38.463Z,942.98
2018-09-08T09:50:38.903Z,942.95
2018-09-08T09:51:39.049Z,942.93
2018-09-08T09:52:39.874Z,942.88
2018-09-08T09:53:40.297Z,942.88
2018-09-08T09:54:40.998Z,942.86
2018-09-08T09:55:41.420Z,942.92
2018-09-08T09:56:41.842Z,942.88
2018-09-08T09:57:42.265Z,942.87
2018-09-08T09:58:42.687Z,942.88
2018-09-08T09:59:43.108Z,942.85
2018-09-08T10:00:43.251Z,942.89
2018-09-08T10:01:43.399Z,942.83
2018-09-08T10:02:43.673Z,942.81
2018-09-08T10:03:44.373Z,942.81
2018-09-08T10:04:44.516Z,942.81
2018-09-08T10:05:45.216Z,942.81
2018-09-08T10:06:45.916Z,942.8
2018-09-08T10:07:46.059Z,942.79
2018-09-08T10:08:46.758Z,942.79
2018-09-08T10:09:47.455Z,942.78
2018-09-08T10:10:48.153Z,942.81
2018-09-08T10:11:48.299Z,942.81
2018-09-08T10:12:48.573Z,942.79
2018-09-08T10:13:48.714Z,942.76
2018-09-08T10:14:49.133Z,942.76
2018-09-08T10:15:49.828Z,942.76
2018-09-08T10:16:50.532Z,942.77
2018-09-08T10:17:50.675Z,942.76
2018-09-08T10:18:51.389Z,942.82
2018-09-08T10:19:52.091Z,942.79
2018-09-08T10:20:52.519Z,942.73
2018-09-08T10:21:52.768Z,942.72
2018-09-08T10:22:53.539Z,942.76
2018-09-08T10:24:05.155Z,942.79
2018-09-08T10:24:54.001Z,942.8
2018-09-08T10:25:54.700Z,942.72
2018-09-08T10:26:55.405Z,942.67
2018-09-08T10:27:55.828Z,942.67
2018-09-08T10:28:56.530Z,942.7
2018-09-08T10:29:57.231Z,942.66
2018-09-08T10:30:57.978Z,942.63
2018-09-08T10:31:58.119Z,942.67
2018-09-08T10:32:59.112Z,942.69
2018-09-08T10:33:59.811Z,942.73
2018-09-08T10:35:00.513Z,942.8
2018-09-08T10:36:00.937Z,942.74
2018-09-08T10:37:01.088Z,942.79
2018-09-08T10:38:01.228Z,942.78
2018-09-08T10:39:01.374Z,942.7
2018-09-08T10:40:01.522Z,942.68
2018-09-08T10:41:01.944Z,942.66
2018-09-08T10:42:02.646Z,942.63
2018-09-08T10:43:02.915Z,942.7
2018-09-08T10:44:03.618Z,942.68
2018-09-08T10:45:04.597Z,942.64
2018-09-08T10:46:04.747Z,942.68
2018-09-08T10:47:04.888Z,942.69
2018-09-08T10:48:05.642Z,942.7
2018-09-08T10:49:06.345Z,942.63
2018-09-08T10:50:06.766Z,942.64
2018-09-08T10:51:07.189Z,942.63
2018-09-08T10:52:07.611Z,942.75
2018-09-08T10:53:08.607Z,942.73
2018-09-08T10:54:09.031Z,942.72
2018-09-08T10:55:09.460Z,942.75
2018-09-08T10:56:09.767Z,942.65
2018-09-08T10:57:09.914Z,942.59
2018-09-08T10:58:10.060Z,942.62
2018-09-08T10:59:10.209Z,942.6
2018-09-08T11:00:10.632Z,942.59
2018-09-08T11:01:10.780Z,942.64
2018-09-08T11:02:11.806Z,942.64
2018-09-08T11:03:11.967Z,942.6
2018-09-08T11:04:12.116Z,942.71
2018-09-08T11:05:12.262Z,942.67
2018-09-08T11:06:12.965Z,942.68
2018-09-08T11:07:13.669Z,942.67
2018-09-08T11:08:14.372Z,942.64
2018-09-08T11:09:14.798Z,942.65
2018-09-08T11:10:14.940Z,942.58
2018-09-08T11:11:15.363Z,942.57
2018-09-08T11:12:16.066Z,942.57
2018-09-08T11:13:16.611Z,942.6
2018-09-08T11:14:17.037Z,942.63
2018-09-08T11:15:18.017Z,942.64
2018-09-08T11:16:18.443Z,942.6
2018-09-08T11:17:18.590Z,942.61
2018-09-08T11:18:19.569Z,942.5
2018-09-08T11:19:20.551Z,942.55
2018-09-08T11:20:20.698Z,942.54
2018-09-08T11:21:21.124Z,942.53
2018-09-08T11:22:21.271Z,942.55
2018-09-08T11:23:21.545Z,942.49
2018-09-08T11:24:22.529Z,942.53
2018-09-08T11:25:22.676Z,942.47
2018-09-08T11:26:22.825Z,942.48
2018-09-08T11:27:23.249Z,942.45
2018-09-08T11:28:23.954Z,942.44
2018-09-08T11:29:24.380Z,942.47
2018-09-08T11:30:25.129Z,942.44
2018-09-08T11:31:25.852Z,942.49
2018-09-08T11:32:26.601Z,942.46
2018-09-08T11:33:27.157Z,942.48
2018-09-08T11:34:27.585Z,942.48
2018-09-08T11:35:28.575Z,942.46
2018-09-08T11:36:29.002Z,942.42
2018-09-08T11:37:29.715Z,942.45
2018-09-08T11:38:30.313Z,942.44
2018-09-08T11:39:30.511Z,942.41
2018-09-08T11:40:30.660Z,942.44
2018-09-08T11:41:31.088Z,942.42
2018-09-08T11:42:31.517Z,942.45
2018-09-08T11:43:32.519Z,942.47
2018-09-08T11:44:32.948Z,942.44
2018-09-08T11:45:33.654Z,942.4
2018-09-08T11:46:34.360Z,942.44
2018-09-08T11:47:34.793Z,942.33
2018-09-08T11:48:35.773Z,942.34
2018-09-08T11:49:36.007Z,942.32
2018-09-08T11:50:36.312Z,942.27
2018-09-08T11:51:36.740Z,942.28
2018-09-08T11:52:37.169Z,942.23
2018-09-08T11:53:38.167Z,942.24
2018-09-08T11:54:38.314Z,942.24
2018-09-08T11:55:38.798Z,942.24
2018-09-08T11:56:39.651Z,942.21
2018-09-08T11:57:40.079Z,942.24
2018-09-08T11:58:40.504Z,942.23
2018-09-08T11:59:41.042Z,942.18
2018-09-08T12:00:41.915Z,942.19
2018-09-08T12:01:42.623Z,942.15
2018-09-08T12:02:43.052Z,942.18
2018-09-08T12:03:43.328Z,942.15
2018-09-08T12:04:44.036Z,942.13
2018-09-08T12:05:44.744Z,942.17
2018-09-08T12:06:45.448Z,942.14
2018-09-08T12:07:46.154Z,942.15
2018-09-08T12:08:46.582Z,942.09
2018-09-08T12:09:47.289Z,942.09
2018-09-08T12:10:47.807Z,942.17
2018-09-08T12:11:48.447Z,942.14
2018-09-08T12:12:48.595Z,942.12
2018-09-08T12:13:49.160Z,942.12
2018-09-08T12:14:49.263Z,942.07
2018-09-08T12:15:49.407Z,942.04
2018-09-08T12:16:49.830Z,942.1
2018-09-08T12:17:50.256Z,942.12
2018-09-08T12:18:50.684Z,942.13
2018-09-08T12:19:51.111Z,942.11
2018-09-08T12:20:51.262Z,942.13
2018-09-08T12:21:51.966Z,942.1
2018-09-08T12:22:52.668Z,942.11
2018-09-08T12:23:52.946Z,942.09
2018-09-08T12:24:53.094Z,942.08
2018-09-08T12:25:53.242Z,942.1
2018-09-08T12:26:53.949Z,942.1
2018-09-08T12:27:54.097Z,942.07
2018-09-08T12:28:54.523Z,942.01
2018-09-08T12:29:54.951Z,941.98
2018-09-08T12:30:55.969Z,942.02
2018-09-08T12:31:56.231Z,941.96
2018-09-08T12:32:56.935Z,941.98
2018-09-08T12:33:57.935Z,942.01
2018-09-08T12:34:58.368Z,942.03
2018-09-08T12:35:58.845Z,941.97
2018-09-08T12:36:58.996Z,942
2018-09-08T12:37:59.699Z,942.02